createdAt,value
2019-03-18T00:01:41.445Z,3.70
2019-03-18T00:04:07.973Z,3.80
2019-03-18T00:06:34.480Z,3.70
2019-03-18T00:09:00.771Z,3.70
2019-03-18T00:11:27.164Z,3.80
2019-03-18T00:13:53.657Z,3.80
2019-03-18T00:16:20.243Z,3.70
2019-03-18T00:18:46.676Z,3.70
2019-03-18T00:21:13.063Z,3.70
2019-03-18T00:23:39.587Z,3.70
2019-03-18T00:26:06.029Z,3.80
2019-03-18T00:28:32.534Z,3.80
2019-03-18T00:30:59.174Z,3.80
2019-03-18T00:33:25.764Z,3.80
2019-03-18T00:35:52.150Z,3.80
2019-03-18T00:38:18.586Z,3.80
2019-03-18T00:40:45.667Z,3.80
2019-03-18T00:43:12.254Z,3.80
2019-03-18T00:45:40.345Z,3.70
2019-03-18T00:48:06.920Z,3.80
2019-03-18T00:50:33.487Z,3.80
2019-03-18T00:53:00.030Z,3.80
2019-03-18T00:55:26.462Z,3.80
2019-03-18T00:57:52.833Z,3.90
2019-03-18T01:00:19.532Z,3.90
2019-03-18T01:02:49.289Z,3.80
2019-03-18T01:05:15.148Z,3.70
2019-03-18T01:07:41.800Z,3.80
2019-03-18T01:10:10.125Z,3.80
2019-03-18T01:12:36.519Z,3.80
2019-03-18T01:15:04.870Z,3.80
2019-03-18T01:17:31.298Z,3.80
2019-03-18T01:19:57.597Z,3.80
2019-03-18T01:22:24.185Z,3.80
2019-03-18T01:24:50.700Z,3.80
2019-03-18T01:27:17.236Z,3.80
2019-03-18T01:29:44.649Z,3.70
2019-03-18T01:32:11.051Z,3.70
2019-03-18T01:34:37.423Z,3.70
2019-03-18T01:37:04.009Z,3.70
2019-03-18T01:39:30.366Z,3.70
2019-03-18T01:41:56.957Z,3.60
2019-03-18T01:44:23.492Z,3.60
2019-03-18T01:46:49.997Z,3.70
2019-03-18T01:49:16.712Z,3.70
2019-03-18T01:51:43.364Z,3.70
2019-03-18T01:54:09.890Z,3.70
2019-03-18T01:56:36.312Z,3.70
2019-03-18T01:59:02.795Z,3.70
2019-03-18T02:01:29.350Z,3.80
2019-03-18T02:03:55.919Z,3.60
2019-03-18T02:06:22.330Z,3.60
2019-03-18T02:08:48.760Z,3.60
2019-03-18T02:11:15.359Z,3.60
2019-03-18T02:13:41.965Z,3.60
2019-03-18T02:16:08.592Z,3.70
2019-03-18T02:18:35.283Z,3.70
2019-03-18T02:21:01.947Z,3.70
2019-03-18T02:23:28.546Z,3.70
2019-03-18T02:25:54.958Z,3.70
2019-03-18T02:28:21.224Z,3.70
2019-03-18T02:30:47.785Z,3.70
2019-03-18T02:33:14.204Z,3.70
2019-03-18T02:35:40.881Z,3.70
2019-03-18T02:38:07.294Z,3.70
2019-03-18T02:40:33.822Z,3.80
2019-03-18T02:43:00.198Z,3.90
2019-03-18T02:45:26.528Z,3.80
2019-03-18T02:47:52.816Z,3.80
2019-03-18T02:50:19.317Z,3.80
2019-03-18T02:52:45.788Z,3.80
2019-03-18T02:55:12.275Z,3.80
2019-03-18T02:57:38.674Z,3.80
2019-03-18T03:00:10.320Z,3.80
2019-03-18T03:02:37.093Z,3.90
2019-03-18T03:05:05.698Z,3.90
2019-03-18T03:07:32.888Z,3.90
2019-03-18T03:09:59.425Z,3.90
2019-03-18T03:12:25.888Z,4.00
2019-03-18T03:14:52.297Z,4.00
2019-03-18T03:17:21.765Z,4.00
2019-03-18T03:19:47.022Z,4.00
2019-03-18T03:22:13.692Z,4.00
2019-03-18T03:24:40.076Z,4.00
2019-03-18T03:27:06.891Z,3.90
2019-03-18T03:29:33.304Z,3.90
2019-03-18T03:31:59.936Z,4.00
2019-03-18T03:34:26.314Z,3.90
2019-03-18T03:36:52.755Z,3.90
2019-03-18T03:39:20.390Z,3.90
2019-03-18T03:41:46.866Z,3.90
2019-03-18T03:44:13.335Z,3.90
2019-03-18T03:46:43.642Z,3.90
2019-03-18T03:49:08.237Z,3.90
2019-03-18T03:51:34.874Z,4.00
2019-03-18T03:54:01.499Z,3.90
2019-03-18T03:56:28.055Z,3.90
2019-03-18T03:58:55.065Z,3.90
2019-03-18T04:01:21.639Z,3.90
2019-03-18T04:03:48.107Z,3.90
2019-03-18T04:06:14.722Z,3.90
2019-03-18T04:08:41.332Z,3.90
2019-03-18T04:11:08.769Z,3.90
2019-03-18T04:13:35.642Z,4.00
2019-03-18T04:16:02.246Z,3.90
2019-03-18T04:18:28.676Z,3.80
2019-03-18T04:20:55.334Z,3.90
2019-03-18T04:23:22.767Z,3.90
2019-03-18T04:25:49.413Z,3.90
2019-03-18T04:28:15.920Z,3.80
2019-03-18T04:30:42.280Z,3.90
2019-03-18T04:33:08.831Z,3.90
2019-03-18T04:35:35.334Z,3.90
2019-03-18T04:38:01.887Z,3.90
2019-03-18T04:40:28.360Z,4.00
2019-03-18T04:42:54.784Z,4.00
2019-03-18T04:45:21.402Z,3.90
2019-03-18T04:47:47.879Z,3.90
2019-03-18T04:50:14.398Z,4.00
2019-03-18T04:52:40.838Z,4.10
2019-03-18T04:55:07.610Z,4.10
2019-03-18T04:57:34.239Z,4.10
2019-03-18T05:00:00.667Z,4.20
2019-03-18T05:02:27.172Z,4.20
2019-03-18T05:04:53.566Z,4.20
2019-03-18T05:07:20.116Z,4.20
2019-03-18T05:09:46.751Z,4.10
2019-03-18T05:12:13.327Z,4.10
2019-03-18T05:14:39.790Z,4.10
2019-03-18T05:17:06.075Z,4.00
2019-03-18T05:19:32.578Z,3.90
2019-03-18T05:21:59.171Z,3.90
2019-03-18T05:24:26.020Z,3.80
2019-03-18T05:26:52.464Z,3.70
2019-03-18T05:29:18.817Z,3.70
2019-03-18T05:31:45.353Z,3.70
2019-03-18T05:34:11.821Z,3.60
2019-03-18T05:36:38.309Z,3.60
2019-03-18T05:39:04.936Z,3.60
2019-03-18T05:41:31.355Z,3.60
2019-03-18T05:43:57.929Z,3.60
2019-03-18T05:46:24.433Z,3.60
2019-03-18T05:48:50.970Z,3.60
2019-03-18T05:51:18.797Z,3.70
2019-03-18T05:53:45.327Z,3.70
2019-03-18T05:56:11.819Z,3.70
2019-03-18T05:58:38.313Z,3.70
2019-03-18T06:01:04.814Z,3.70
2019-03-18T06:03:31.210Z,3.70
2019-03-18T06:05:57.686Z,3.70
2019-03-18T06:08:24.322Z,3.80
2019-03-18T06:10:50.966Z,3.80
2019-03-18T06:13:17.394Z,3.90
2019-03-18T06:15:44.053Z,3.90
2019-03-18T06:18:10.622Z,4.10
2019-03-18T06:20:38.849Z,4.30
2019-03-18T06:23:05.236Z,4.60
2019-03-18T06:25:33.927Z,4.80
2019-03-18T06:28:00.785Z,5.00
2019-03-18T06:30:27.233Z,5.00
2019-03-18T06:32:53.992Z,4.90
2019-03-18T06:35:20.779Z,4.90
2019-03-18T06:37:47.425Z,4.90
2019-03-18T06:40:15.846Z,4.80
2019-03-18T06:42:42.564Z,4.90
2019-03-18T06:45:12.200Z,4.90
2019-03-18T06:47:39.307Z,4.80
2019-03-18T06:50:07.614Z,4.70
2019-03-18T06:52:34.171Z,4.70
2019-03-18T06:55:01.289Z,4.80
2019-03-18T06:57:27.789Z,4.80
2019-03-18T06:59:54.499Z,4.70
2019-03-18T07:02:21.095Z,4.70
2019-03-18T07:04:47.803Z,4.80
2019-03-18T07:07:14.251Z,4.80
2019-03-18T07:09:40.801Z,4.90
2019-03-18T07:12:07.407Z,4.90
2019-03-18T07:14:33.906Z,5.00
2019-03-18T07:17:01.238Z,5.00
2019-03-18T07:19:30.145Z,4.90
2019-03-18T07:21:56.687Z,4.90
2019-03-18T07:24:23.196Z,4.90
2019-03-18T07:26:49.797Z,4.90
2019-03-18T07:29:16.164Z,4.90
2019-03-18T07:31:42.555Z,4.90
2019-03-18T07:34:09.112Z,5.00
2019-03-18T07:36:35.587Z,5.10
2019-03-18T07:39:03.815Z,5.20
2019-03-18T07:41:30.329Z,5.10
2019-03-18T07:43:56.869Z,5.10
2019-03-18T07:46:23.397Z,5.10
2019-03-18T07:48:50.176Z,5.40
2019-03-18T07:51:16.948Z,5.50
2019-03-18T07:53:43.357Z,5.70
2019-03-18T07:56:09.818Z,5.90
2019-03-18T07:58:36.624Z,5.90
2019-03-18T08:01:03.405Z,6.00
2019-03-18T08:03:29.920Z,5.80
2019-03-18T08:05:56.431Z,5.50
2019-03-18T08:08:23.059Z,5.40
2019-03-18T08:10:51.326Z,5.30
2019-03-18T08:13:17.866Z,5.40
2019-03-18T08:15:44.530Z,5.50
2019-03-18T08:18:11.039Z,5.60
2019-03-18T08:20:37.658Z,5.60
2019-03-18T08:23:05.189Z,5.60
2019-03-18T08:25:31.747Z,5.50
2019-03-18T08:27:58.324Z,5.50
2019-03-18T08:30:24.977Z,5.40
2019-03-18T08:32:51.825Z,5.40
2019-03-18T08:35:18.472Z,5.40
2019-03-18T08:37:45.118Z,5.30
2019-03-18T08:40:11.874Z,5.30
2019-03-18T08:42:38.493Z,5.30
2019-03-18T08:45:08.323Z,5.10
2019-03-18T08:47:34.905Z,5.00
2019-03-18T08:50:01.531Z,5.00
2019-03-18T08:52:28.229Z,4.90
2019-03-18T08:54:54.866Z,4.90
2019-03-18T08:57:21.382Z,4.80
2019-03-18T08:59:47.882Z,4.90
2019-03-18T09:02:14.447Z,4.80
2019-03-18T09:04:40.943Z,4.90
2019-03-18T09:07:07.476Z,4.90
2019-03-18T09:09:33.945Z,4.80
2019-03-18T09:12:00.494Z,4.90
2019-03-18T09:14:26.984Z,4.70
2019-03-18T09:16:53.674Z,4.60
2019-03-18T09:19:20.224Z,4.30
2019-03-18T09:21:46.814Z,4.20
2019-03-18T09:24:13.259Z,4.20
2019-03-18T09:26:39.526Z,4.20
2019-03-18T09:29:06.062Z,4.10
2019-03-18T09:31:32.619Z,4.10
2019-03-18T09:33:59.179Z,4.10
2019-03-18T09:36:25.582Z,4.20
2019-03-18T09:38:52.098Z,4.10
2019-03-18T09:41:18.679Z,4.20
2019-03-18T09:43:45.196Z,4.40
2019-03-18T09:46:11.704Z,4.50
2019-03-18T09:48:38.215Z,4.50
2019-03-18T09:51:04.868Z,4.60
2019-03-18T09:53:31.490Z,4.60
2019-03-18T09:55:57.999Z,4.70
2019-03-18T09:58:24.546Z,4.80
2019-03-18T10:00:51.274Z,4.80
2019-03-18T10:03:17.776Z,5.00
2019-03-18T10:05:44.405Z,5.00
2019-03-18T10:08:11.026Z,5.10
2019-03-18T10:10:37.538Z,5.10
2019-03-18T10:13:04.037Z,5.10
2019-03-18T10:15:30.558Z,5.10
2019-03-18T10:17:57.468Z,5.20
2019-03-18T10:20:25.538Z,5.10
2019-03-18T10:22:52.014Z,5.20
2019-03-18T10:25:20.521Z,5.30
2019-03-18T10:27:47.155Z,5.40
2019-03-18T10:30:14.337Z,5.60
2019-03-18T10:32:40.896Z,5.70
2019-03-18T10:35:08.149Z,5.80
2019-03-18T10:37:34.661Z,5.90
2019-03-18T10:40:01.350Z,5.90
2019-03-18T10:42:28.046Z,6.00
2019-03-18T10:44:54.585Z,6.00
2019-03-18T10:47:20.962Z,6.10
2019-03-18T10:49:47.415Z,6.20
2019-03-18T10:52:13.907Z,6.30
2019-03-18T10:54:40.569Z,6.40
2019-03-18T10:57:07.344Z,6.30
2019-03-18T10:59:35.995Z,6.20
2019-03-18T11:02:02.716Z,6.10
2019-03-18T11:04:39.049Z,6.10
2019-03-18T11:07:05.631Z,6.00
2019-03-18T11:09:32.191Z,6.00
2019-03-18T11:11:58.805Z,6.00
2019-03-18T11:14:25.494Z,6.00
2019-03-18T11:16:52.574Z,6.00
2019-03-18T11:19:19.445Z,5.90
2019-03-18T11:21:47.938Z,5.90
2019-03-18T11:24:14.322Z,5.90
2019-03-18T11:26:40.767Z,5.90
2019-03-18T11:29:07.811Z,5.80
2019-03-18T11:31:34.348Z,5.90
2019-03-18T11:34:01.112Z,5.90
2019-03-18T11:36:27.591Z,6.00
2019-03-18T11:38:54.211Z,6.00
2019-03-18T11:41:21.018Z,6.00
2019-03-18T11:43:47.639Z,6.10
2019-03-18T11:46:14.169Z,6.10
2019-03-18T11:48:40.702Z,6.00
2019-03-18T11:51:07.163Z,5.90
2019-03-18T11:53:34.041Z,5.60
2019-03-18T11:56:00.570Z,5.60
2019-03-18T11:58:28.692Z,5.30
2019-03-18T12:00:55.190Z,5.20
2019-03-18T12:03:21.814Z,5.40
2019-03-18T12:05:48.416Z,5.50
2019-03-18T12:08:14.991Z,5.50
2019-03-18T12:10:41.659Z,5.60
2019-03-18T12:13:08.388Z,5.70
2019-03-18T12:15:36.471Z,5.60
2019-03-18T12:18:03.393Z,5.70
2019-03-18T12:20:32.877Z,5.70
2019-03-18T12:22:58.340Z,5.70
2019-03-18T12:25:24.870Z,5.80
2019-03-18T12:27:52.689Z,5.90
2019-03-18T12:30:21.580Z,6.00
2019-03-18T12:32:48.279Z,6.20
2019-03-18T12:35:14.792Z,6.40
2019-03-18T12:37:41.442Z,6.70
2019-03-18T12:40:14.770Z,6.70
2019-03-18T12:42:43.572Z,6.80
2019-03-18T12:45:19.661Z,6.80
2019-03-18T12:47:47.317Z,6.70
2019-03-18T12:50:16.357Z,6.80
2019-03-18T12:52:42.899Z,6.80
2019-03-18T12:55:09.455Z,6.50
2019-03-18T12:57:35.927Z,6.50
2019-03-18T13:00:05.922Z,6.20
2019-03-18T13:02:32.467Z,6.00
2019-03-18T13:04:59.026Z,5.80
2019-03-18T13:07:25.551Z,5.60
2019-03-18T13:09:52.191Z,5.50
2019-03-18T13:12:18.672Z,5.20
2019-03-18T13:14:45.222Z,5.10
2019-03-18T13:17:11.710Z,5.10
2019-03-18T13:19:38.173Z,4.90
2019-03-18T13:22:04.811Z,4.90
2019-03-18T13:24:31.518Z,4.90
2019-03-18T13:27:00.111Z,4.90
2019-03-18T13:29:27.185Z,4.90
2019-03-18T13:31:53.711Z,4.90
2019-03-18T13:34:20.306Z,5.00
2019-03-18T13:36:46.793Z,5.00
2019-03-18T13:39:13.293Z,5.00
2019-03-18T13:41:40.852Z,4.90
2019-03-18T13:44:07.402Z,5.00
2019-03-18T13:46:34.102Z,5.00
2019-03-18T13:49:00.706Z,4.90
2019-03-18T13:51:29.015Z,4.90
2019-03-18T13:53:55.736Z,5.00
2019-03-18T13:56:22.275Z,4.90
2019-03-18T13:58:48.740Z,4.90
2019-03-18T14:01:15.334Z,4.70
2019-03-18T14:03:41.938Z,4.60
2019-03-18T14:06:08.612Z,4.50
2019-03-18T14:08:35.250Z,4.50
2019-03-18T14:11:01.909Z,4.60
2019-03-18T14:13:28.289Z,4.60
2019-03-18T14:15:54.821Z,4.50
2019-03-18T14:18:21.293Z,4.50
2019-03-18T14:20:47.867Z,4.60
2019-03-18T14:23:14.505Z,4.50
2019-03-18T14:25:40.894Z,4.60
2019-03-18T14:28:09.460Z,4.70
2019-03-18T14:30:35.854Z,4.80
2019-03-18T14:33:04.810Z,4.90
2019-03-18T14:35:31.412Z,4.90
2019-03-18T14:37:57.969Z,4.90
2019-03-18T14:40:24.757Z,5.00
2019-03-18T14:42:51.418Z,4.90
2019-03-18T14:45:19.161Z,4.70
2019-03-18T14:47:45.777Z,4.60
2019-03-18T14:50:13.474Z,4.50
2019-03-18T14:52:52.885Z,4.50
2019-03-18T14:55:22.883Z,4.50
2019-03-18T14:57:55.221Z,4.50
2019-03-18T15:00:23.864Z,4.40
2019-03-18T15:02:56.728Z,4.50
2019-03-18T15:05:26.674Z,4.50
2019-03-18T15:08:01.193Z,4.50
2019-03-18T15:10:41.162Z,4.40
2019-03-18T15:13:30.755Z,4.30
2019-03-18T15:15:49.859Z,4.40
2019-03-18T15:18:17.723Z,4.40
2019-03-18T15:20:46.546Z,4.40
2019-03-18T15:23:28.623Z,4.40
2019-03-18T15:26:00.980Z,4.30
2019-03-18T15:28:29.118Z,4.50
2019-03-18T15:31:00.919Z,4.10
2019-03-18T15:33:31.237Z,3.70
2019-03-18T15:36:01.714Z,3.40
2019-03-18T15:38:35.419Z,3.30
2019-03-18T15:41:03.116Z,3.10
2019-03-18T15:43:35.149Z,3.00
2019-03-18T15:46:06.643Z,2.90
2019-03-18T15:48:36.760Z,3.00
2019-03-18T15:51:04.335Z,2.90
2019-03-18T15:53:33.732Z,2.70
2019-03-18T15:56:09.549Z,2.60
2019-03-18T15:58:36.987Z,2.50
2019-03-18T16:01:07.480Z,2.40
2019-03-18T16:03:41.649Z,2.40
2019-03-18T16:06:12.942Z,2.30
2019-03-18T16:08:39.456Z,2.20
2019-03-18T16:11:05.987Z,2.20
2019-03-18T16:13:34.910Z,2.00
2019-03-18T16:16:01.370Z,2.00
2019-03-18T16:18:27.898Z,2.00
2019-03-18T16:20:54.387Z,2.00
2019-03-18T16:23:21.194Z,2.00
2019-03-18T16:25:47.673Z,2.00
2019-03-18T16:28:14.102Z,2.00
2019-03-18T16:30:40.415Z,1.80
2019-03-18T16:33:07.879Z,1.60
2019-03-18T16:35:34.622Z,1.60
2019-03-18T16:38:01.232Z,1.60
2019-03-18T16:40:27.903Z,1.50
2019-03-18T16:42:55.807Z,1.50
2019-03-18T16:45:22.367Z,1.40
2019-03-18T16:47:50.673Z,1.50
2019-03-18T16:50:25.357Z,1.50
2019-03-18T16:52:51.729Z,1.50
2019-03-18T16:55:18.236Z,1.40
2019-03-18T16:57:44.728Z,1.30
2019-03-18T17:00:18.346Z,1.20
2019-03-18T17:02:44.806Z,1.20
2019-03-18T17:05:11.680Z,1.30
2019-03-18T17:07:38.169Z,1.20
2019-03-18T17:10:08.334Z,1.20
2019-03-18T17:12:34.866Z,1.00
2019-03-18T17:15:01.632Z,0.90
2019-03-18T17:17:28.022Z,1.00
2019-03-18T17:19:54.930Z,0.90
2019-03-18T17:22:21.408Z,0.90
2019-03-18T17:24:49.135Z,0.90
2019-03-18T17:27:15.723Z,0.90
2019-03-18T17:29:42.241Z,0.90
2019-03-18T17:32:08.770Z,0.80
2019-03-18T17:34:35.622Z,0.80
2019-03-18T17:37:02.037Z,0.60
2019-03-18T17:39:28.440Z,0.60
2019-03-18T17:41:55.542Z,0.60
2019-03-18T17:44:22.241Z,0.70
2019-03-18T17:46:48.602Z,0.60
2019-03-18T17:49:18.221Z,0.70
2019-03-18T17:51:44.912Z,0.80
2019-03-18T17:54:11.401Z,0.90
2019-03-18T17:56:39.984Z,0.70
2019-03-18T17:59:06.546Z,0.80
2019-03-18T18:01:33.140Z,0.80
2019-03-18T18:03:59.691Z,0.80
2019-03-18T18:06:26.289Z,0.70
2019-03-18T18:08:52.800Z,0.70
2019-03-18T18:11:19.282Z,0.80
2019-03-18T18:13:45.747Z,0.80
2019-03-18T18:16:12.217Z,0.80
2019-03-18T18:18:38.904Z,0.80
2019-03-18T18:21:05.270Z,0.80
2019-03-18T18:23:31.661Z,0.80
2019-03-18T18:25:58.129Z,0.80
2019-03-18T18:28:24.447Z,0.80
2019-03-18T18:30:50.910Z,0.80
2019-03-18T18:33:17.301Z,0.80
2019-03-18T18:35:43.918Z,0.80
2019-03-18T18:38:10.385Z,0.70
2019-03-18T18:40:37.947Z,0.80
2019-03-18T18:43:04.451Z,0.70
2019-03-18T18:45:30.928Z,0.90
2019-03-18T18:47:57.326Z,0.80
2019-03-18T18:50:23.839Z,0.90
2019-03-18T18:52:50.204Z,0.70
2019-03-18T18:55:16.619Z,0.80
2019-03-18T18:57:43.092Z,0.80
2019-03-18T19:00:14.934Z,0.80
2019-03-18T19:02:41.523Z,0.80
2019-03-18T19:05:14.863Z,0.80
2019-03-18T19:07:41.898Z,0.80
2019-03-18T19:10:12.547Z,0.80
2019-03-18T19:12:39.406Z,0.80
2019-03-18T19:15:09.584Z,0.90
2019-03-18T19:17:36.202Z,0.80
2019-03-18T19:20:05.987Z,0.80
2019-03-18T19:22:32.962Z,0.80
2019-03-18T19:24:59.663Z,0.80
2019-03-18T19:27:26.427Z,0.80
2019-03-18T19:29:53.063Z,0.80
2019-03-18T19:32:20.171Z,0.80
2019-03-18T19:34:46.709Z,0.90
2019-03-18T19:37:13.248Z,0.90
2019-03-18T19:39:39.873Z,0.90
2019-03-18T19:42:06.611Z,0.90
2019-03-18T19:44:33.121Z,0.80
2019-03-18T19:46:59.663Z,0.80
2019-03-18T19:49:26.141Z,0.90
2019-03-18T19:51:52.748Z,0.80
2019-03-18T19:54:19.315Z,0.90
2019-03-18T19:56:45.952Z,0.80
2019-03-18T19:59:12.470Z,0.80
2019-03-18T20:01:38.979Z,0.90
2019-03-18T20:04:05.463Z,0.90
2019-03-18T20:06:32.080Z,0.90
2019-03-18T20:08:58.739Z,0.90
2019-03-18T20:11:25.153Z,0.90
2019-03-18T20:13:51.802Z,1.00
2019-03-18T20:16:18.293Z,1.00
2019-03-18T20:18:44.686Z,0.90
2019-03-18T20:21:11.171Z,0.90
2019-03-18T20:23:37.691Z,0.90
2019-03-18T20:26:04.296Z,0.90
2019-03-18T20:28:30.550Z,0.90
2019-03-18T20:30:57.005Z,0.90
2019-03-18T20:33:23.436Z,0.90
2019-03-18T20:35:50.116Z,0.90
2019-03-18T20:38:16.594Z,0.80
2019-03-18T20:40:43.132Z,0.80
2019-03-18T20:43:09.667Z,0.90
2019-03-18T20:45:36.043Z,0.80
2019-03-18T20:48:02.551Z,0.90
2019-03-18T20:50:29.042Z,0.90
2019-03-18T20:52:55.674Z,0.80
2019-03-18T20:55:22.092Z,0.90
2019-03-18T20:57:48.599Z,0.80
2019-03-18T21:00:17.554Z,0.80
2019-03-18T21:02:44.080Z,0.80
2019-03-18T21:05:10.570Z,0.80
2019-03-18T21:07:37.081Z,0.80
2019-03-18T21:10:08.763Z,0.70
2019-03-18T21:12:35.210Z,0.80
2019-03-18T21:15:01.723Z,0.90
2019-03-18T21:17:28.254Z,0.80
2019-03-18T21:19:54.554Z,0.90
2019-03-18T21:22:20.823Z,0.90
2019-03-18T21:24:47.204Z,0.90
2019-03-18T21:27:13.805Z,0.90
2019-03-18T21:29:40.464Z,0.80
2019-03-18T21:32:07.008Z,0.90
2019-03-18T21:34:33.494Z,0.90
2019-03-18T21:36:59.946Z,0.90
2019-03-18T21:39:26.335Z,0.90
2019-03-18T21:41:52.718Z,0.90
2019-03-18T21:44:19.370Z,0.90
2019-03-18T21:46:45.782Z,0.90
2019-03-18T21:49:12.393Z,0.90
2019-03-18T21:51:38.918Z,0.80
2019-03-18T21:54:05.401Z,0.90
2019-03-18T21:56:31.880Z,0.90
2019-03-18T21:58:58.342Z,0.90
2019-03-18T22:01:24.778Z,0.80
2019-03-18T22:03:51.326Z,0.80
2019-03-18T22:06:17.876Z,0.70
2019-03-18T22:08:44.258Z,0.80
2019-03-18T22:11:10.758Z,0.70
2019-03-18T22:13:37.136Z,0.70
2019-03-18T22:16:03.663Z,0.70
2019-03-18T22:18:30.042Z,0.70
2019-03-18T22:20:56.436Z,0.70
2019-03-18T22:23:23.021Z,0.60
2019-03-18T22:25:49.553Z,0.70
2019-03-18T22:28:15.945Z,0.70
2019-03-18T22:30:42.481Z,0.70
2019-03-18T22:33:08.768Z,0.70
2019-03-18T22:35:35.273Z,0.70
2019-03-18T22:38:01.848Z,0.70
2019-03-18T22:40:28.329Z,0.70
2019-03-18T22:42:54.839Z,0.70
2019-03-18T22:45:21.293Z,0.70
2019-03-18T22:47:47.772Z,0.70
2019-03-18T22:50:16.090Z,0.80
2019-03-18T22:52:42.486Z,0.80
2019-03-18T22:55:09.773Z,0.80
2019-03-18T22:57:36.951Z,0.70
2019-03-18T23:00:08.902Z,0.70
2019-03-18T23:02:35.520Z,0.70
2019-03-18T23:05:03.479Z,0.70
2019-03-18T23:07:29.760Z,0.70
2019-03-18T23:09:56.373Z,0.70
2019-03-18T23:12:23.069Z,0.70
2019-03-18T23:14:49.446Z,0.70
2019-03-18T23:17:15.918Z,0.60
2019-03-18T23:19:42.290Z,0.70
2019-03-18T23:22:08.733Z,0.70
2019-03-18T23:24:35.103Z,0.70
2019-03-18T23:27:01.574Z,0.70
2019-03-18T23:29:28.032Z,0.70
2019-03-18T23:31:54.527Z,0.70
2019-03-18T23:34:20.931Z,0.70
2019-03-18T23:36:47.453Z,0.70
2019-03-18T23:39:13.916Z,0.70
2019-03-18T23:41:40.304Z,0.70
2019-03-18T23:44:06.844Z,0.70
2019-03-18T23:46:33.385Z,0.80
2019-03-18T23:48:59.802Z,0.80
2019-03-18T23:51:26.307Z,0.80
2019-03-18T23:53:52.795Z,0.80
2019-03-18T23:56:19.064Z,0.80
2019-03-18T23:58:45.323Z,0.80
